createdAt,value
2023-01-13T00:00:16.855Z,67.57
2023-01-13T00:02:43.936Z,67.53
2023-01-13T00:05:11.430Z,67.32
2023-01-13T00:07:40.270Z,67.53
2023-01-13T00:10:11.553Z,67.25
2023-01-13T00:12:41.925Z,67.13
2023-01-13T00:15:09.987Z,67.28
2023-01-13T00:17:37.217Z,67.06
2023-01-13T00:20:04.920Z,67.19
2023-01-13T00:22:35.063Z,66.72
2023-01-13T00:25:04.278Z,66.61
2023-01-13T00:27:31.663Z,66.72
2023-01-13T00:29:59.249Z,66.63
2023-01-13T00:32:27.218Z,66.42
2023-01-13T00:34:54.592Z,66.59
2023-01-13T00:37:21.743Z,66.42
2023-01-13T00:39:48.769Z,66.26
2023-01-13T00:42:34.516Z,66.45
2023-01-13T00:45:01.500Z,66.27
2023-01-13T00:47:28.462Z,66.42
2023-01-13T00:49:55.689Z,66.28
2023-01-13T00:52:22.680Z,66.30
2023-01-13T00:54:49.755Z,66.28
2023-01-13T00:57:16.911Z,66.14
2023-01-13T00:59:43.887Z,66.28
2023-01-13T01:02:10.934Z,66.31
2023-01-13T01:04:38.044Z,66.52
2023-01-13T01:07:05.009Z,66.64
2023-01-13T01:09:34.663Z,66.47
2023-01-13T01:12:01.885Z,66.59
2023-01-13T01:14:28.947Z,66.61
2023-01-13T01:16:55.923Z,66.76
2023-01-13T01:19:23.639Z,66.54
2023-01-13T01:21:50.664Z,66.38
2023-01-13T01:24:17.738Z,66.45
2023-01-13T01:26:44.760Z,66.43
2023-01-13T01:29:15.301Z,66.66
2023-01-13T01:31:43.202Z,66.43
2023-01-13T01:34:10.269Z,66.75
2023-01-13T01:36:37.314Z,66.74
2023-01-13T01:39:05.184Z,67.09
2023-01-13T01:41:34.679Z,67.17
2023-01-13T01:44:43.681Z,67.30
2023-01-13T01:47:14.671Z,67.27
2023-01-13T01:49:43.112Z,67.14
2023-01-13T01:52:19.395Z,67.34
2023-01-13T01:55:10.941Z,67.28
2023-01-13T01:57:57.284Z,67.17
2023-01-13T02:00:26.220Z,67.40
2023-01-13T02:02:53.581Z,67.46
2023-01-13T02:05:21.179Z,67.46
2023-01-13T02:07:52.619Z,67.26
2023-01-13T02:10:23.827Z,67.15
2023-01-13T02:12:52.018Z,67.30
2023-01-13T02:15:56.193Z,67.14
2023-01-13T02:18:52.788Z,67.28
2023-01-13T02:22:04.350Z,67.20
2023-01-13T02:24:57.532Z,67.13
2023-01-13T02:28:07.838Z,67.17
2023-01-13T02:31:15.944Z,67.27
2023-01-13T02:34:21.918Z,67.09
2023-01-13T02:37:16.987Z,67.19
2023-01-13T02:39:59.102Z,67.35
2023-01-13T02:42:53.872Z,67.28
2023-01-13T02:45:29.700Z,67.12
2023-01-13T02:47:59.315Z,67.16
2023-01-13T02:50:34.744Z,66.94
2023-01-13T02:53:16.055Z,66.77
2023-01-13T02:55:53.857Z,66.84
2023-01-13T02:58:26.811Z,66.72
2023-01-13T03:00:55.127Z,66.63
2023-01-13T03:03:22.080Z,66.60
2023-01-13T03:05:59.317Z,66.47
2023-01-13T03:08:43.190Z,66.40
2023-01-13T03:11:13.481Z,66.28
2023-01-13T03:13:59.738Z,66.06
2023-01-13T03:17:02.578Z,66.11
2023-01-13T03:19:44.916Z,66.26
2023-01-13T03:22:30.726Z,66.59
2023-01-13T03:25:34.475Z,66.37
2023-01-13T03:28:19.751Z,66.37
2023-01-13T03:30:54.484Z,66.28
2023-01-13T03:33:29.712Z,66.37
2023-01-13T03:36:03.749Z,66.47
2023-01-13T03:38:54.475Z,66.22
2023-01-13T03:41:36.884Z,66.42
2023-01-13T03:44:23.949Z,66.21
2023-01-13T03:47:29.222Z,66.27
2023-01-13T03:50:12.100Z,66.11
2023-01-13T03:52:50.657Z,66.39
2023-01-13T03:55:23.118Z,66.21
2023-01-13T03:58:10.938Z,66.58
2023-01-13T04:00:46.776Z,66.53
2023-01-13T04:03:25.360Z,66.47
2023-01-13T04:06:04.694Z,66.60
2023-01-13T04:08:33.590Z,66.50
2023-01-13T04:11:10.951Z,66.45
2023-01-13T04:13:41.794Z,66.64
2023-01-13T04:16:11.213Z,66.68
2023-01-13T04:18:39.749Z,67.04
2023-01-13T04:21:07.827Z,67.35
2023-01-13T04:23:34.894Z,67.47
2023-01-13T04:26:01.805Z,67.71
2023-01-13T04:28:28.723Z,67.80
2023-01-13T04:30:55.626Z,67.70
2023-01-13T04:33:22.544Z,67.64
2023-01-13T04:35:49.499Z,67.44
2023-01-13T04:38:20.484Z,67.32
2023-01-13T04:40:47.766Z,67.05
2023-01-13T04:43:15.774Z,66.74
2023-01-13T04:45:43.706Z,66.62
2023-01-13T04:48:10.714Z,66.41
2023-01-13T04:50:37.655Z,66.17
2023-01-13T04:53:04.646Z,65.95
2023-01-13T04:55:32.090Z,65.74
2023-01-13T04:58:08.116Z,65.50
2023-01-13T05:00:35.770Z,65.11
2023-01-13T05:03:03.465Z,64.70
2023-01-13T05:05:30.969Z,64.30
2023-01-13T05:07:58.377Z,63.86
2023-01-13T05:10:26.404Z,63.93
2023-01-13T05:13:12.190Z,63.55
2023-01-13T05:15:59.839Z,63.45
2023-01-13T05:18:28.347Z,63.36
2023-01-13T05:20:55.241Z,63.41
2023-01-13T05:23:40.927Z,63.46
2023-01-13T05:26:07.914Z,63.33
2023-01-13T05:28:35.084Z,63.45
2023-01-13T05:31:02.070Z,63.57
2023-01-13T05:33:29.238Z,63.42
2023-01-13T05:35:56.121Z,63.63
2023-01-13T05:38:23.018Z,63.37
2023-01-13T05:41:08.197Z,63.63
2023-01-13T05:43:35.071Z,63.73
2023-01-13T05:46:09.989Z,63.74
2023-01-13T05:48:41.618Z,63.55
2023-01-13T05:51:11.786Z,63.76
2023-01-13T05:53:40.744Z,63.62
2023-01-13T05:56:09.332Z,63.59
2023-01-13T05:58:36.258Z,63.92
2023-01-13T06:01:08.909Z,63.69
2023-01-13T06:03:36.404Z,63.77
2023-01-13T06:06:04.232Z,63.73
2023-01-13T06:08:31.930Z,63.72
2023-01-13T06:10:58.845Z,63.32
2023-01-13T06:13:25.808Z,63.33
2023-01-13T06:15:57.775Z,63.50
2023-01-13T06:18:25.449Z,63.39
2023-01-13T06:20:52.358Z,63.17
2023-01-13T06:23:19.401Z,63.14
2023-01-13T06:26:00.283Z,63.34
2023-01-13T06:28:27.209Z,63.22
2023-01-13T06:31:00.661Z,63.48
2023-01-13T06:33:36.871Z,63.05
2023-01-13T06:36:11.585Z,62.98
2023-01-13T06:38:42.756Z,62.78
2023-01-13T06:41:09.958Z,62.68
2023-01-13T06:43:38.289Z,63.08
2023-01-13T06:46:05.564Z,62.79
2023-01-13T06:48:35.105Z,62.67
2023-01-13T06:51:03.663Z,62.69
2023-01-13T06:53:30.619Z,62.56
2023-01-13T06:55:57.527Z,62.97
2023-01-13T06:58:24.398Z,62.92
2023-01-13T07:00:51.681Z,62.58
2023-01-13T07:03:19.849Z,62.87
2023-01-13T07:05:54.206Z,63.02
2023-01-13T07:08:22.520Z,62.47
2023-01-13T07:10:49.449Z,62.80
2023-01-13T07:13:34.828Z,62.67
2023-01-13T07:16:04.947Z,62.48
2023-01-13T07:18:34.334Z,62.87
2023-01-13T07:21:07.559Z,62.98
2023-01-13T07:23:37.687Z,62.70
2023-01-13T07:26:05.481Z,62.76
2023-01-13T07:28:32.722Z,62.73
2023-01-13T07:31:00.248Z,62.82
2023-01-13T07:33:27.163Z,63.14
2023-01-13T07:36:00.376Z,62.89
2023-01-13T07:38:28.063Z,62.84
2023-01-13T07:40:55.230Z,62.92
2023-01-13T07:43:34.164Z,62.65
2023-01-13T07:46:04.856Z,62.71
2023-01-13T07:48:34.270Z,62.75
2023-01-13T07:51:07.198Z,62.82
2023-01-13T07:53:34.700Z,62.75
2023-01-13T07:56:03.831Z,62.58
2023-01-13T07:58:30.960Z,62.77
2023-01-13T08:00:58.050Z,63.09
2023-01-13T08:03:25.328Z,62.99
2023-01-13T08:05:52.253Z,63.09
2023-01-13T08:08:19.246Z,63.09
2023-01-13T08:10:46.206Z,63.27
2023-01-13T08:13:22.562Z,63.21
2023-01-13T08:15:52.356Z,63.06
2023-01-13T08:18:22.200Z,63.38
2023-01-13T08:20:52.871Z,63.63
2023-01-13T08:23:22.337Z,63.74
2023-01-13T08:25:50.174Z,63.89
2023-01-13T08:28:17.419Z,64.00
2023-01-13T08:30:44.513Z,64.26
2023-01-13T08:33:12.948Z,64.73
2023-01-13T08:35:41.283Z,64.79
2023-01-13T08:38:09.170Z,64.84
2023-01-13T08:40:36.482Z,65.02
2023-01-13T08:43:03.517Z,64.94
2023-01-13T08:45:30.422Z,64.96
2023-01-13T08:47:57.443Z,64.82
2023-01-13T08:50:24.351Z,64.90
2023-01-13T08:52:51.263Z,64.92
2023-01-13T08:55:18.161Z,64.89
2023-01-13T08:57:45.314Z,64.72
2023-01-13T09:00:13.769Z,64.92
2023-01-13T09:02:40.958Z,64.88
2023-01-13T09:05:09.246Z,65.12
2023-01-13T09:07:38.030Z,64.73
2023-01-13T09:10:07.412Z,64.95
2023-01-13T09:12:52.623Z,64.47
2023-01-13T09:15:19.587Z,64.20
2023-01-13T09:17:47.864Z,63.94
2023-01-13T09:20:14.954Z,63.94
2023-01-13T09:22:41.913Z,63.82
2023-01-13T09:25:09.566Z,63.74
2023-01-13T09:27:36.484Z,63.25
2023-01-13T09:30:04.154Z,63.16
2023-01-13T09:32:31.096Z,62.46
2023-01-13T09:35:01.201Z,61.79
2023-01-13T09:37:36.516Z,61.73
2023-01-13T09:40:19.488Z,61.95
2023-01-13T09:43:18.793Z,61.68
2023-01-13T09:46:04.497Z,61.31
2023-01-13T09:48:52.073Z,60.96
2023-01-13T09:51:34.007Z,60.28
2023-01-13T09:54:13.607Z,60.73
2023-01-13T09:56:40.559Z,59.43
2023-01-13T09:59:11.662Z,59.81
2023-01-13T10:02:04.827Z,60.30
2023-01-13T10:04:31.766Z,59.86
2023-01-13T10:07:03.679Z,60.01
2023-01-13T10:09:34.528Z,60.11
2023-01-13T10:12:21.356Z,59.70
2023-01-13T10:14:55.769Z,59.69
2023-01-13T10:17:50.742Z,59.77
2023-01-13T10:20:21.743Z,59.32
2023-01-13T10:23:05.048Z,59.52
2023-01-13T10:25:42.496Z,59.42
2023-01-13T10:28:13.576Z,59.61
2023-01-13T10:30:43.911Z,59.71
2023-01-13T10:33:10.700Z,59.53
2023-01-13T10:36:13.803Z,59.64
2023-01-13T10:38:47.692Z,59.00
2023-01-13T10:41:23.572Z,58.82
2023-01-13T10:44:07.782Z,58.94
2023-01-13T10:46:55.334Z,58.48
2023-01-13T10:49:32.610Z,58.34
2023-01-13T10:52:01.907Z,58.54
2023-01-13T10:54:29.773Z,57.98
2023-01-13T10:57:21.213Z,58.26
2023-01-13T10:59:48.819Z,58.27
2023-01-13T11:02:34.362Z,58.23
2023-01-13T11:05:24.781Z,58.07
2023-01-13T11:07:54.890Z,58.32
2023-01-13T11:10:28.959Z,58.25
2023-01-13T11:13:18.224Z,58.32
2023-01-13T11:15:53.902Z,58.26
2023-01-13T11:18:51.570Z,57.42
2023-01-13T11:21:28.339Z,57.87
2023-01-13T11:24:12.664Z,57.96
2023-01-13T11:26:57.117Z,57.73
2023-01-13T11:30:00.244Z,57.54
2023-01-13T11:32:31.556Z,57.17
2023-01-13T11:35:05.803Z,57.16
2023-01-13T11:37:37.486Z,56.65
2023-01-13T11:40:21.599Z,56.94
2023-01-13T11:43:01.901Z,56.29
2023-01-13T11:45:55.684Z,55.83
2023-01-13T11:48:27.500Z,54.57
2023-01-13T11:51:15.114Z,54.80
2023-01-13T11:54:24.315Z,54.03
2023-01-13T11:57:28.431Z,53.57
2023-01-13T12:00:29.955Z,53.06
2023-01-13T12:03:23.115Z,52.89
2023-01-13T12:06:23.579Z,53.10
2023-01-13T12:09:39.304Z,51.77
2023-01-13T12:12:39.114Z,51.85
2023-01-13T12:15:21.478Z,51.23
2023-01-13T12:18:25.645Z,51.57
2023-01-13T12:21:21.187Z,51.58
2023-01-13T12:24:27.272Z,51.18
2023-01-13T12:27:32.578Z,51.34
2023-01-13T12:30:04.274Z,51.44
2023-01-13T12:32:37.943Z,51.77
2023-01-13T12:35:27.977Z,51.48
2023-01-13T12:38:13.895Z,51.63
2023-01-13T12:41:17.516Z,51.54
2023-01-13T12:44:07.001Z,50.87
2023-01-13T12:46:36.550Z,50.84
2023-01-13T12:49:04.607Z,50.43
2023-01-13T12:52:07.173Z,51.31
2023-01-13T12:54:37.021Z,51.33
2023-01-13T12:57:25.433Z,51.15
2023-01-13T13:00:04.809Z,51.40
2023-01-13T13:02:38.469Z,50.65
2023-01-13T13:05:14.598Z,49.87
2023-01-13T13:07:49.645Z,49.94
2023-01-13T13:10:34.015Z,49.41
2023-01-13T13:13:18.352Z,49.48
2023-01-13T13:15:51.094Z,49.33
2023-01-13T13:18:17.866Z,49.09
2023-01-13T13:21:08.724Z,48.90
2023-01-13T13:24:04.476Z,48.66
2023-01-13T13:26:37.822Z,49.23
2023-01-13T13:29:36.084Z,49.19
2023-01-13T13:32:38.448Z,49.29
2023-01-13T13:35:14.022Z,49.30
2023-01-13T13:38:29.170Z,49.38
2023-01-13T13:41:14.936Z,49.81
2023-01-13T13:44:03.700Z,49.35
2023-01-13T13:46:49.790Z,49.58
2023-01-13T13:49:34.289Z,48.51
2023-01-13T13:52:11.693Z,48.99
2023-01-13T13:54:47.462Z,48.23
2023-01-13T13:57:20.592Z,48.23
2023-01-13T13:59:55.881Z,48.74
2023-01-13T14:02:31.159Z,48.62
2023-01-13T14:05:20.307Z,48.27
2023-01-13T14:08:01.069Z,47.45
2023-01-13T14:10:35.558Z,48.06
2023-01-13T14:13:21.849Z,47.84
2023-01-13T14:15:56.678Z,47.66
2023-01-13T14:18:24.592Z,47.74
2023-01-13T14:21:00.919Z,47.42
2023-01-13T14:23:32.874Z,47.92
2023-01-13T14:26:12.829Z,47.97
2023-01-13T14:28:40.982Z,47.95
2023-01-13T14:31:09.542Z,48.18
2023-01-13T14:33:43.170Z,47.96
2023-01-13T14:36:31.861Z,48.41
2023-01-13T14:39:04.774Z,47.78
2023-01-13T14:41:42.634Z,48.22
2023-01-13T14:44:35.008Z,48.13
2023-01-13T14:47:33.711Z,48.22
2023-01-13T14:50:19.807Z,48.37
2023-01-13T14:52:54.659Z,48.54
2023-01-13T14:55:31.686Z,48.34
2023-01-13T14:58:37.347Z,48.52
2023-01-13T15:01:28.829Z,48.15
2023-01-13T15:04:15.813Z,48.17
2023-01-13T15:06:47.746Z,48.57
2023-01-13T15:09:17.828Z,48.41
2023-01-13T15:11:44.830Z,48.60
2023-01-13T15:14:11.913Z,48.50
2023-01-13T15:16:38.800Z,48.64
2023-01-13T15:19:05.729Z,48.60
2023-01-13T15:21:32.685Z,48.81
2023-01-13T15:23:59.890Z,49.08
2023-01-13T15:26:29.732Z,48.78
2023-01-13T15:28:58.417Z,49.29
2023-01-13T15:31:27.095Z,49.19
2023-01-13T15:33:54.309Z,49.02
2023-01-13T15:36:31.041Z,49.26
2023-01-13T15:38:59.670Z,49.35
2023-01-13T15:41:45.409Z,49.61
2023-01-13T15:44:33.617Z,49.41
2023-01-13T15:47:05.798Z,49.57
2023-01-13T15:49:40.967Z,49.54
2023-01-13T15:52:23.947Z,49.34
2023-01-13T15:54:52.185Z,49.75
2023-01-13T15:57:34.302Z,49.88
2023-01-13T16:00:08.072Z,49.76
2023-01-13T16:02:35.084Z,49.50
2023-01-13T16:05:02.032Z,50.07
2023-01-13T16:07:28.889Z,49.69
2023-01-13T16:09:56.492Z,49.91
2023-01-13T16:12:23.393Z,50.10
2023-01-13T16:14:50.386Z,50.08
2023-01-13T16:17:27.303Z,49.75
2023-01-13T16:19:54.214Z,49.78
2023-01-13T16:22:21.222Z,49.86
2023-01-13T16:24:48.411Z,49.60
2023-01-13T16:27:19.613Z,49.99
2023-01-13T16:29:47.315Z,49.94
2023-01-13T16:32:14.241Z,50.00
2023-01-13T16:34:41.662Z,50.46
2023-01-13T16:37:26.770Z,50.41
2023-01-13T16:39:56.597Z,50.28
2023-01-13T16:42:25.473Z,50.94
2023-01-13T16:44:52.844Z,50.65
2023-01-13T16:47:20.610Z,51.10
2023-01-13T16:49:47.508Z,50.94
2023-01-13T16:52:14.397Z,51.20
2023-01-13T16:54:41.392Z,51.51
2023-01-13T16:57:13.292Z,51.59
2023-01-13T16:59:40.227Z,51.66
2023-01-13T17:02:14.603Z,51.49
2023-01-13T17:04:41.492Z,51.63
2023-01-13T17:07:09.875Z,51.62
2023-01-13T17:09:36.790Z,52.11
2023-01-13T17:12:03.880Z,51.90
2023-01-13T17:14:30.756Z,52.11
2023-01-13T17:17:00.677Z,52.36
2023-01-13T17:19:27.730Z,52.31
2023-01-13T17:21:54.685Z,52.42
2023-01-13T17:24:21.665Z,52.73
2023-01-13T17:26:50.927Z,52.67
2023-01-13T17:29:23.308Z,52.48
2023-01-13T17:31:51.536Z,52.80
2023-01-13T17:34:19.685Z,52.77
2023-01-13T17:36:46.800Z,52.62
2023-01-13T17:39:21.367Z,52.66
2023-01-13T17:41:48.508Z,52.55
2023-01-13T17:44:18.591Z,52.49
2023-01-13T17:46:46.106Z,52.53
2023-01-13T17:49:15.601Z,52.50
2023-01-13T17:51:42.669Z,52.52
2023-01-13T17:54:13.243Z,52.50
2023-01-13T17:56:41.406Z,52.57
2023-01-13T17:59:10.625Z,52.37
2023-01-13T18:01:39.122Z,52.57
2023-01-13T18:04:06.998Z,52.41
2023-01-13T18:06:34.133Z,52.62
2023-01-13T18:09:01.343Z,52.57
2023-01-13T18:11:28.391Z,52.79
2023-01-13T18:14:01.307Z,52.85
2023-01-13T18:16:30.441Z,52.66
2023-01-13T18:19:18.388Z,52.99
2023-01-13T18:22:05.691Z,52.91
2023-01-13T18:24:51.641Z,53.09
2023-01-13T18:27:24.178Z,52.88
2023-01-13T18:29:54.396Z,53.05
2023-01-13T18:32:23.495Z,53.21
2023-01-13T18:34:53.951Z,53.33
2023-01-13T18:37:25.705Z,52.95
2023-01-13T18:39:52.750Z,53.26
2023-01-13T18:42:38.015Z,53.27
2023-01-13T18:45:05.385Z,53.35
2023-01-13T18:47:33.556Z,53.35
2023-01-13T18:50:00.572Z,53.52
2023-01-13T18:52:27.682Z,53.66
2023-01-13T18:54:54.580Z,53.20
2023-01-13T18:57:22.218Z,53.58
2023-01-13T18:59:49.109Z,53.55
2023-01-13T19:02:19.971Z,53.61
2023-01-13T19:04:47.430Z,53.39
2023-01-13T19:07:22.101Z,53.60
2023-01-13T19:09:50.036Z,53.34
2023-01-13T19:12:26.047Z,53.42
2023-01-13T19:14:54.998Z,53.45
2023-01-13T19:17:24.165Z,53.83
2023-01-13T19:19:54.729Z,53.73
2023-01-13T19:22:27.255Z,53.52
2023-01-13T19:24:54.582Z,53.81
2023-01-13T19:27:22.073Z,53.68
2023-01-13T19:29:52.487Z,53.64
2023-01-13T19:32:23.097Z,54.22
2023-01-13T19:34:51.095Z,54.33
2023-01-13T19:37:19.549Z,54.42
2023-01-13T19:39:47.011Z,55.04
2023-01-13T19:42:32.953Z,55.38
2023-01-13T19:45:18.424Z,55.60
2023-01-13T19:47:46.067Z,55.90
2023-01-13T19:50:14.354Z,56.28
2023-01-13T19:52:42.649Z,56.69
2023-01-13T19:55:12.399Z,56.48
2023-01-13T19:57:40.714Z,56.36
2023-01-13T20:00:09.304Z,56.28
2023-01-13T20:02:47.900Z,56.28
2023-01-13T20:05:21.042Z,56.86
2023-01-13T20:07:49.748Z,56.36
2023-01-13T20:10:18.526Z,55.64
2023-01-13T20:12:45.521Z,55.69
2023-01-13T20:15:12.418Z,56.06
2023-01-13T20:17:40.595Z,55.49
2023-01-13T20:20:09.606Z,55.66
2023-01-13T20:22:40.537Z,55.42
2023-01-13T20:25:08.734Z,55.52
2023-01-13T20:27:35.852Z,55.75
2023-01-13T20:30:04.022Z,55.76
2023-01-13T20:32:30.943Z,55.79
2023-01-13T20:34:57.817Z,56.21
2023-01-13T20:37:24.895Z,55.98
2023-01-13T20:39:51.782Z,56.17
2023-01-13T20:42:30.613Z,56.11
2023-01-13T20:45:01.224Z,56.43
2023-01-13T20:47:29.817Z,56.52
2023-01-13T20:49:56.718Z,56.37
2023-01-13T20:52:23.880Z,56.50
2023-01-13T20:54:50.836Z,56.70
2023-01-13T20:57:18.153Z,56.94
2023-01-13T20:59:45.283Z,56.90
2023-01-13T21:02:14.891Z,57.05
2023-01-13T21:04:41.837Z,57.03
2023-01-13T21:07:09.379Z,57.23
2023-01-13T21:09:36.624Z,57.31
2023-01-13T21:12:23.705Z,57.74
2023-01-13T21:15:09.105Z,57.90
2023-01-13T21:18:08.347Z,57.98
2023-01-13T21:20:37.192Z,58.04
2023-01-13T21:23:04.943Z,58.15
2023-01-13T21:25:35.374Z,58.06
2023-01-13T21:28:06.246Z,58.24
2023-01-13T21:30:33.709Z,58.49
2023-01-13T21:33:00.930Z,58.57
2023-01-13T21:35:27.850Z,58.49
2023-01-13T21:37:54.763Z,58.27
2023-01-13T21:40:21.663Z,58.61
2023-01-13T21:43:06.950Z,58.76
2023-01-13T21:45:52.344Z,58.20
2023-01-13T21:48:19.290Z,59.09
2023-01-13T21:50:46.209Z,58.99
2023-01-13T21:53:13.096Z,59.44
2023-01-13T21:55:40.196Z,59.53
2023-01-13T21:58:11.578Z,59.61
2023-01-13T22:00:40.120Z,59.68
2023-01-13T22:03:09.635Z,59.56
2023-01-13T22:05:36.767Z,59.63
2023-01-13T22:08:04.756Z,59.79
2023-01-13T22:10:31.803Z,59.89
2023-01-13T22:13:21.335Z,59.45
2023-01-13T22:15:48.240Z,59.36
2023-01-13T22:18:15.168Z,59.27
2023-01-13T22:20:42.098Z,59.48
2023-01-13T22:23:09.103Z,59.24
2023-01-13T22:25:36.050Z,59.26
2023-01-13T22:28:06.005Z,59.42
2023-01-13T22:30:33.333Z,58.78
2023-01-13T22:33:00.615Z,58.77
2023-01-13T22:35:27.559Z,58.96
2023-01-13T22:37:54.470Z,58.74
2023-01-13T22:40:21.401Z,58.68
2023-01-13T22:42:48.294Z,58.56
2023-01-13T22:45:15.183Z,58.77
2023-01-13T22:47:42.239Z,58.65
2023-01-13T22:50:10.217Z,58.67
2023-01-13T22:52:37.186Z,58.39
2023-01-13T22:55:06.838Z,58.34
2023-01-13T22:57:36.734Z,58.24
2023-01-13T23:00:14.816Z,58.35
2023-01-13T23:02:41.965Z,58.55
2023-01-13T23:05:09.257Z,58.21
2023-01-13T23:07:36.313Z,57.83
2023-01-13T23:10:04.298Z,58.08
2023-01-13T23:12:31.412Z,57.98
2023-01-13T23:14:58.294Z,58.11
2023-01-13T23:17:25.201Z,58.03
2023-01-13T23:19:52.073Z,58.12
2023-01-13T23:22:19.199Z,57.88
2023-01-13T23:24:46.209Z,57.69
2023-01-13T23:27:13.138Z,57.79
2023-01-13T23:29:40.060Z,57.62
2023-01-13T23:32:06.956Z,57.76
2023-01-13T23:34:33.823Z,58.02
2023-01-13T23:37:00.733Z,57.98
2023-01-13T23:39:27.630Z,57.96
2023-01-13T23:41:54.893Z,57.71
2023-01-13T23:44:21.860Z,57.72
2023-01-13T23:46:48.763Z,58.25
2023-01-13T23:49:15.661Z,58.14
2023-01-13T23:51:42.631Z,58.08
2023-01-13T23:54:09.756Z,58.10
2023-01-13T23:56:39.452Z,57.80
2023-01-13T23:59:06.937Z,57.82
